Time;durP1;ratioP1;P1;durP2;ratioP2;P2;SDS_P1;SDS_P2;PMS_P1;PMS_P2;Temp;Humidity;BMP_temperature;BMP_pressure;BME280_temperature;BME280_humidity;BME280_pressure;Samples;Min_cycle;Max_cycle;Signal;HPM_P1;HPM_P2
2023/09/18 00:00:38;;;;;;;39.45;12.90;;;16.70;99.90;;;;;;6114468;23;20090;-70
2023/09/18 00:03:03;;;;;;;40.03;14.20;;;16.70;99.90;;;;;;6091698;23;20017;-70
2023/09/18 00:05:29;;;;;;;205.57;19.73;;;16.70;99.90;;;;;;6116939;23;20094;-69
2023/09/18 00:07:55;;;;;;;69.75;22.45;;;16.80;99.90;;;;;;6092236;23;20017;-70
2023/09/18 00:10:21;;;;;;;24.70;16.85;;;16.80;99.90;;;;;;6091098;23;20063;-70
2023/09/18 00:12:46;;;;;;;60.92;18.25;;;17.20;99.90;;;;;;6091524;23;20018;-70
2023/09/18 00:15:12;;;;;;;20.83;18.80;;;16.80;99.90;;;;;;6091325;23;20018;-70
2023/09/18 00:17:38;;;;;;;19.55;17.63;;;16.80;99.90;;;;;;6117851;23;20018;-69
2023/09/18 00:20:07;;;;;;;20.25;18.10;;;16.70;99.90;;;;;;6114906;23;20005;-70
2023/09/18 00:22:33;;;;;;;20.50;18.30;;;16.80;99.90;;;;;;6118066;23;20117;-69
2023/09/18 00:24:59;;;;;;;47.63;16.23;;;16.70;99.90;;;;;;6116558;23;20433;-70
2023/09/18 00:27:24;;;;;;;16.00;14.50;;;16.70;99.90;;;;;;6090518;23;20036;-69
2023/09/18 00:29:50;;;;;;;14.40;12.95;;;16.70;99.90;;;;;;6088294;23;20053;-70
2023/09/18 00:32:15;;;;;;;16.85;15.32;;;16.70;99.90;;;;;;6090412;23;20130;-69
2023/09/18 00:34:41;;;;;;;23.55;18.75;;;16.60;99.90;;;;;;6117096;23;20041;-69
2023/09/18 00:37:06;;;;;;;23.55;20.73;;;16.70;99.90;;;;;;6091965;23;20025;-69
2023/09/18 00:39:32;;;;;;;28.00;23.70;;;16.70;99.90;;;;;;6090363;23;20033;-69
2023/09/18 00:41:57;;;;;;;24.52;22.00;;;16.70;99.90;;;;;;6090699;23;20053;-69
2023/09/18 00:44:26;;;;;;;31.42;24.15;;;16.70;99.90;;;;;;6088548;23;20022;-69
2023/09/18 00:46:54;;;;;;;25.83;22.75;;;16.70;99.90;;;;;;6091692;23;20461;-69
2023/09/18 00:49:22;;;;;;;26.90;23.67;;;16.70;99.90;;;;;;6116821;23;20014;-69
2023/09/18 00:51:47;;;;;;;22.45;20.17;;;16.80;99.90;;;;;;6116016;23;20017;-70
2023/09/18 00:54:15;;;;;;;25.63;22.92;;;16.90;99.90;;;;;;6091824;23;20018;-69
2023/09/18 00:56:41;;;;;;;24.67;22.05;;;16.90;99.90;;;;;;6067092;23;20022;-70
2023/09/18 00:59:07;;;;;;;23.67;21.05;;;17.10;99.90;;;;;;6090542;23;20010;-69
2023/09/18 01:01:33;;;;;;;26.40;23.25;;;17.30;99.90;;;;;;6115893;23;20018;-70
2023/09/18 01:03:59;;;;;;;25.00;22.33;;;17.40;99.90;;;;;;6118409;23;20436;-70
2023/09/18 01:06:27;;;;;;;26.73;21.17;;;17.50;99.90;;;;;;6088880;23;20026;-70
2023/09/18 01:08:54;;;;;;;23.67;20.90;;;17.50;99.90;;;;;;6116085;23;20014;-70
2023/09/18 01:11:31;;;;;;;22.85;19.90;;;17.50;99.90;;;;;;6116593;23;20021;-70
2023/09/18 01:14:24;;;;;;;23.10;20.70;;;17.50;99.90;;;;;;6090991;23;20069;-70
2023/09/18 01:17:03;;;;;;;22.17;19.80;;;17.60;99.90;;;;;;6090449;23;20018;-70
2023/09/18 01:19:46;;;;;;;22.20;19.98;;;17.70;99.90;;;;;;6090898;23;20075;-69
2023/09/18 01:22:14;;;;;;;22.58;19.92;;;17.70;99.90;;;;;;6090446;23;20083;-69
2023/09/18 01:24:41;;;;;;;20.95;18.92;;;17.70;99.90;;;;;;6091409;23;20010;-70
2023/09/18 01:27:13;;;;;;;20.08;18.30;;;17.60;99.90;;;;;;6115001;23;20381;-70
2023/09/18 01:29:38;;;;;;;20.73;18.60;;;17.60;99.90;;;;;;6114709;23;20016;-69
2023/09/18 01:32:05;;;;;;;21.80;19.60;;;17.60;99.90;;;;;;6089937;23;20128;-70
2023/09/18 01:34:41;;;;;;;21.13;18.95;;;17.70;99.90;;;;;;6088670;23;20029;-70
2023/09/18 01:37:08;;;;;;;21.48;19.60;;;17.60;99.90;;;;;;6113968;23;20075;-70
2023/09/18 01:39:35;;;;;;;20.52;18.45;;;17.60;99.90;;;;;;6063669;23;20025;-70
2023/09/18 01:42:05;;;;;;;20.58;18.58;;;17.60;99.90;;;;;;6089035;23;20014;-70
2023/09/18 01:44:31;;;;;;;19.80;17.88;;;17.60;99.90;;;;;;6089518;23;20014;-68
2023/09/18 01:46:59;;;;;;;20.30;18.25;;;17.70;99.90;;;;;;6115058;23;20081;-68
2023/09/18 01:49:36;;;;;;;19.90;17.88;;;17.70;99.90;;;;;;6088093;23;20071;-67
2023/09/18 01:52:04;;;;;;;20.13;18.23;;;17.70;99.90;;;;;;6089174;23;20042;-67
2023/09/18 01:54:30;;;;;;;20.27;18.30;;;17.80;99.90;;;;;;6089136;23;20425;-70
2023/09/18 01:56:56;;;;;;;19.85;18.02;;;17.80;99.90;;;;;;6087620;23;20014;-70
2023/09/18 01:59:22;;;;;;;20.83;18.83;;;17.80;99.90;;;;;;6091015;23;20083;-70
2023/09/18 02:01:49;;;;;;;20.25;18.38;;;17.80;99.90;;;;;;6116678;23;20037;-70
2023/09/18 02:04:14;;;;;;;20.33;18.38;;;17.90;99.90;;;;;;6091092;23;20102;-71
2023/09/18 02:06:40;;;;;;;20.10;18.23;;;17.90;99.90;;;;;;6116715;23;20045;-70
2023/09/18 02:09:09;;;;;;;19.20;17.40;;;17.90;99.90;;;;;;6116041;23;20014;-70
2023/09/18 02:11:46;;;;;;;20.50;18.52;;;17.90;99.90;;;;;;6114880;23;20121;-70
2023/09/18 02:14:12;;;;;;;19.70;17.80;;;17.90;99.90;;;;;;6091909;23;20041;-69
2023/09/18 02:16:46;;;;;;;19.15;17.38;;;18.00;99.90;;;;;;6114078;23;20018;-69
2023/09/18 02:19:13;;;;;;;19.38;17.60;;;17.90;99.90;;;;;;6117650;23;20010;-70
2023/09/18 02:21:39;;;;;;;19.20;17.50;;;17.90;99.90;;;;;;6067175;23;20010;-69
2023/09/18 02:24:06;;;;;;;18.98;17.27;;;17.90;99.90;;;;;;6092885;23;20014;-69
2023/09/18 02:26:31;;;;;;;18.08;16.30;;;17.90;99.90;;;;;;6090349;23;20014;-69
2023/09/18 02:28:58;;;;;;;18.58;16.77;;;17.90;99.90;;;;;;6091042;23;20344;-69
2023/09/18 02:31:24;;;;;;;18.02;16.42;;;17.90;99.90;;;;;;6091597;23;20994;-69
2023/09/18 02:33:50;;;;;;;19.20;17.60;;;17.90;99.90;;;;;;6118304;23;20025;-69
2023/09/18 02:36:15;;;;;;;19.00;17.25;;;17.90;99.90;;;;;;6092119;23;20014;-70
2023/09/18 02:38:42;;;;;;;18.00;16.20;;;17.90;99.90;;;;;;6091011;23;20021;-69
2023/09/18 02:41:08;;;;;;;17.80;16.20;;;18.00;99.90;;;;;;6117930;23;20018;-69
2023/09/18 02:43:33;;;;;;;18.55;16.58;;;18.00;99.90;;;;;;6091686;23;20032;-69
2023/09/18 02:45:59;;;;;;;17.30;15.80;;;18.10;99.90;;;;;;6091417;23;20042;-70
2023/09/18 02:48:24;;;;;;;17.77;16.08;;;17.90;99.90;;;;;;6117804;23;20026;-70
2023/09/18 02:50:50;;;;;;;17.80;15.13;;;18.00;99.90;;;;;;6091190;23;20018;-69
2023/09/18 02:53:21;;;;;;;16.95;15.13;;;18.00;99.90;;;;;;6092327;23;20025;-70
2023/09/18 02:55:50;;;;;;;16.92;15.40;;;18.00;99.90;;;;;;6090419;23;20099;-70
2023/09/18 02:58:16;;;;;;;17.10;15.43;;;18.00;99.90;;;;;;6091875;23;20094;-70
2023/09/18 03:00:47;;;;;;;16.70;15.02;;;18.10;99.90;;;;;;6088588;23;20046;-70
2023/09/18 03:03:14;;;;;;;16.90;15.45;;;18.10;99.90;;;;;;6090774;23;20025;-70
2023/09/18 03:05:41;;;;;;;16.77;15.27;;;18.00;99.90;;;;;;6092092;23;20014;-70
2023/09/18 03:08:08;;;;;;;16.20;14.50;;;18.00;99.90;;;;;;6118058;23;20026;-70
2023/09/18 03:10:34;;;;;;;16.63;15.23;;;18.00;99.90;;;;;;6116764;23;20045;-70
2023/09/18 03:13:01;;;;;;;16.33;14.68;;;18.00;99.90;;;;;;6091280;23;20482;-70
2023/09/18 03:15:26;;;;;;;15.90;14.32;;;18.00;99.90;;;;;;6090731;23;20096;-70
2023/09/18 03:17:52;;;;;;;15.48;14.10;;;18.00;99.90;;;;;;6117975;23;20045;-70
2023/09/18 03:20:17;;;;;;;14.40;13.20;;;18.00;99.90;;;;;;6089408;23;20021;-70
2023/09/18 03:22:43;;;;;;;14.68;13.20;;;18.00;99.90;;;;;;6091885;23;20089;-70
2023/09/18 03:25:10;;;;;;;14.15;12.77;;;18.00;99.90;;;;;;6117456;23;20014;-70
2023/09/18 03:27:35;;;;;;;13.23;12.18;;;18.10;99.90;;;;;;6066841;23;20018;-70
2023/09/18 03:30:01;;;;;;;13.93;12.77;;;18.10;99.90;;;;;;6089234;23;20333;-70
2023/09/18 03:32:26;;;;;;;13.65;12.18;;;18.10;99.90;;;;;;6117547;23;20383;-70
2023/09/18 03:34:53;;;;;;;14.07;12.13;;;18.10;99.90;;;;;;6090388;23;20022;-70
2023/09/18 03:37:19;;;;;;;13.65;12.27;;;18.10;99.90;;;;;;6114678;23;20014;-70
2023/09/18 03:39:45;;;;;;;13.07;11.85;;;18.10;99.90;;;;;;6090394;23;20021;-70
2023/09/18 03:42:10;;;;;;;12.10;10.90;;;18.30;99.90;;;;;;6114609;23;20010;-70
2023/09/18 03:44:36;;;;;;;12.30;11.25;;;18.20;99.90;;;;;;6116071;23;20014;-70
2023/09/18 03:47:03;;;;;;;11.35;10.32;;;18.20;99.90;;;;;;6088498;23;20093;-69
2023/09/18 03:49:29;;;;;;;11.60;10.57;;;18.20;99.90;;;;;;6089273;23;20010;-69
2023/09/18 03:51:54;;;;;;;13.10;11.38;;;18.20;99.90;;;;;;6090646;23;20403;-69
2023/09/18 03:54:20;;;;;;;11.82;10.73;;;18.30;99.90;;;;;;6089362;23;20052;-69
2023/09/18 03:56:46;;;;;;;11.18;9.93;;;18.30;99.90;;;;;;6114550;23;20020;-69
2023/09/18 03:59:12;;;;;;;11.57;10.43;;;18.30;99.90;;;;;;6088108;23;20041;-69
2023/09/18 04:01:38;;;;;;;11.13;10.00;;;18.30;99.90;;;;;;6114659;23;20014;-69
2023/09/18 04:04:03;;;;;;;10.70;9.57;;;18.30;99.90;;;;;;6090037;23;20021;-69
2023/09/18 04:06:43;;;;;;;11.32;9.13;;;18.40;99.90;;;;;;6114927;23;20014;-69
2023/09/18 04:09:09;;;;;;;10.93;9.80;;;18.40;99.90;;;;;;6088926;23;20045;-69
2023/09/18 04:11:35;;;;;;;10.85;9.75;;;18.30;99.90;;;;;;6090162;23;20029;-69
2023/09/18 04:14:01;;;;;;;11.13;10.02;;;18.40;99.90;;;;;;6117870;23;20013;-69
2023/09/18 04:16:37;;;;;;;9.85;9.05;;;18.40;99.90;;;;;;6088838;23;20014;-69
2023/09/18 04:19:03;;;;;;;10.68;9.63;;;18.40;99.90;;;;;;6090887;23;20029;-69
2023/09/18 04:21:31;;;;;;;9.55;8.68;;;18.40;99.90;;;;;;6090523;23;20018;-68
2023/09/18 04:23:57;;;;;;;10.73;9.38;;;18.40;99.90;;;;;;6091993;23;20018;-68
2023/09/18 04:26:29;;;;;;;11.43;9.43;;;18.50;99.90;;;;;;6115890;23;20028;-70
2023/09/18 04:28:56;;;;;;;9.63;8.63;;;18.40;99.90;;;;;;6090934;23;20049;-70
2023/09/18 04:31:21;;;;;;;11.20;9.05;;;18.40;99.90;;;;;;6090844;23;20010;-70
2023/09/18 04:33:47;;;;;;;10.80;8.57;;;18.40;99.90;;;;;;6091892;23;20464;-70
2023/09/18 04:36:12;;;;;;;15.00;9.30;;;18.50;99.90;;;;;;6114613;23;20049;-70
2023/09/18 04:38:38;;;;;;;11.18;9.60;;;18.40;99.90;;;;;;6116726;23;20090;-70
2023/09/18 04:41:04;;;;;;;9.70;8.57;;;18.50;99.90;;;;;;6089730;23;20088;-69
2023/09/18 04:43:30;;;;;;;10.55;8.82;;;18.40;99.90;;;;;;6116584;23;20028;-69
2023/09/18 04:45:56;;;;;;;11.75;9.18;;;18.50;99.90;;;;;;6090593;23;20452;-70
2023/09/18 04:48:21;;;;;;;9.70;8.73;;;18.40;99.90;;;;;;6091267;23;20028;-70
2023/09/18 04:50:48;;;;;;;11.93;9.48;;;18.50;99.90;;;;;;6113609;23;20508;-70
2023/09/18 04:53:14;;;;;;;11.55;8.43;;;18.50;99.90;;;;;;6090880;23;20093;-70
2023/09/18 04:55:40;;;;;;;9.48;8.57;;;18.50;99.90;;;;;;6114170;23;20066;-70
2023/09/18 04:58:06;;;;;;;14.40;9.85;;;18.50;99.90;;;;;;6091002;23;20411;-69
2023/09/18 05:00:33;;;;;;;10.38;8.00;;;18.60;99.90;;;;;;6116643;23;20085;-70
2023/09/18 05:03:01;;;;;;;11.52;8.45;;;18.60;99.90;;;;;;6118530;23;20018;-70
2023/09/18 05:05:27;;;;;;;11.90;8.75;;;18.60;99.90;;;;;;6117956;23;20097;-70
2023/09/18 05:07:53;;;;;;;8.90;8.05;;;18.60;99.90;;;;;;6118023;23;20575;-70
2023/09/18 05:10:19;;;;;;;13.55;8.57;;;18.50;99.90;;;;;;6116586;23;20061;-70
2023/09/18 05:12:45;;;;;;;8.48;7.68;;;18.50;99.90;;;;;;6117882;23;20022;-70
2023/09/18 05:15:12;;;;;;;10.40;7.90;;;18.50;99.90;;;;;;6114990;23;20024;-70
2023/09/18 05:17:44;;;;;;;9.98;8.10;;;18.60;99.90;;;;;;6115189;23;20083;-70
2023/09/18 05:20:13;;;;;;;10.90;7.97;;;18.50;99.90;;;;;;6090555;23;20484;-70
2023/09/18 05:22:39;;;;;;;13.05;7.55;;;18.50;99.90;;;;;;6091690;23;20018;-70
2023/09/18 05:25:06;;;;;;;9.68;8.65;;;18.50;99.90;;;;;;6089094;23;20090;-70
2023/09/18 05:27:32;;;;;;;9.95;8.65;;;18.50;99.90;;;;;;6114825;23;20045;-70
2023/09/18 05:29:58;;;;;;;11.43;7.60;;;18.50;99.90;;;;;;6114054;23;20010;-70
2023/09/18 05:32:23;;;;;;;12.63;8.18;;;18.50;99.90;;;;;;6089939;23;20391;-70
2023/09/18 05:34:49;;;;;;;11.18;8.20;;;18.60;99.90;;;;;;6116688;23;20382;-70
2023/09/18 05:37:15;;;;;;;8.80;7.97;;;18.50;99.90;;;;;;6113206;23;20421;-70
2023/09/18 05:39:41;;;;;;;11.45;7.50;;;18.60;99.90;;;;;;6115856;23;20048;-70
2023/09/18 05:42:06;;;;;;;11.80;8.13;;;18.50;99.90;;;;;;6089838;23;20445;-70
2023/09/18 05:44:33;;;;;;;9.60;8.60;;;18.60;99.90;;;;;;6090523;23;20018;-70
2023/09/18 05:46:59;;;;;;;9.50;8.50;;;18.50;99.90;;;;;;6090813;23;20028;-70
2023/09/18 05:49:24;;;;;;;12.07;7.82;;;18.50;99.90;;;;;;6090655;23;20516;-70
2023/09/18 05:51:50;;;;;;;10.13;8.45;;;18.50;99.90;;;;;;6089908;23;20022;-70
2023/09/18 05:54:15;;;;;;;9.20;7.38;;;18.50;99.90;;;;;;6094115;23;20010;-70
2023/09/18 05:56:41;;;;;;;9.15;8.25;;;18.50;99.90;;;;;;6092139;23;20014;-70
2023/09/18 05:59:07;;;;;;;10.05;7.47;;;18.50;99.90;;;;;;6092630;23;20018;-70
2023/09/18 06:01:32;;;;;;;12.82;8.98;;;18.60;99.90;;;;;;6092545;23;20453;-70
2023/09/18 06:03:58;;;;;;;7.88;6.85;;;18.50;99.90;;;;;;6093253;23;20091;-70
2023/09/18 06:06:25;;;;;;;9.10;7.10;;;18.50;99.90;;;;;;6093771;23;20054;-70
2023/09/18 06:08:53;;;;;;;10.80;8.27;;;18.60;99.90;;;;;;6119458;23;20018;-70
2023/09/18 06:11:19;;;;;;;12.85;8.30;;;18.60;99.90;;;;;;6093205;23;20105;-70
2023/09/18 06:13:45;;;;;;;9.00;7.63;;;18.60;99.90;;;;;;6092553;23;20057;-70
2023/09/18 06:16:11;;;;;;;8.93;7.97;;;18.60;99.90;;;;;;6091550;23;20029;-70
2023/09/18 06:18:38;;;;;;;8.32;7.32;;;18.60;99.90;;;;;;6091577;23;20079;-70
2023/09/18 06:21:04;;;;;;;10.15;7.65;;;18.60;99.90;;;;;;6092748;23;20025;-70
2023/09/18 06:23:29;;;;;;;8.95;7.60;;;18.60;99.90;;;;;;6093539;23;20067;-70
2023/09/18 06:25:56;;;;;;;8.43;7.60;;;18.60;99.90;;;;;;6120522;23;20093;-70
2023/09/18 06:28:22;;;;;;;8.00;7.20;;;18.60;99.90;;;;;;6094953;23;20483;-70
2023/09/18 06:30:48;;;;;;;11.02;8.43;;;18.60;99.90;;;;;;6093137;23;20028;-70
2023/09/18 06:33:14;;;;;;;8.55;7.50;;;18.60;99.90;;;;;;6095650;23;20054;-70
2023/09/18 06:35:40;;;;;;;8.55;7.75;;;18.70;99.90;;;;;;6094635;23;20014;-70
2023/09/18 06:38:06;;;;;;;8.25;7.47;;;18.70;99.90;;;;;;6095248;23;20013;-70
2023/09/18 06:40:32;;;;;;;11.82;8.50;;;19.00;99.90;;;;;;6093345;23;20021;-70
2023/09/18 06:43:00;;;;;;;13.45;8.75;;;18.70;99.90;;;;;;6121613;23;20014;-70
2023/09/18 06:45:27;;;;;;;13.07;8.07;;;18.70;99.90;;;;;;6093899;23;20514;-70
2023/09/18 06:47:53;;;;;;;11.35;8.82;;;18.70;99.90;;;;;;6095036;23;20447;-70
2023/09/18 06:50:19;;;;;;;11.75;8.07;;;18.80;99.90;;;;;;6094191;23;20014;-70
2023/09/18 06:52:44;;;;;;;12.48;8.38;;;18.80;99.90;;;;;;6094192;23;20022;-70
2023/09/18 06:55:10;;;;;;;10.18;9.13;;;18.80;99.90;;;;;;6095239;23;20029;-70
2023/09/18 06:57:36;;;;;;;14.60;9.35;;;18.80;99.90;;;;;;6094712;23;20022;-70
2023/09/18 07:00:02;;;;;;;9.45;8.45;;;18.80;99.90;;;;;;6092963;23;20021;-70
2023/09/18 07:02:28;;;;;;;11.63;8.65;;;18.80;99.90;;;;;;6093916;23;20326;-71
2023/09/18 07:04:54;;;;;;;14.55;10.02;;;18.80;99.90;;;;;;6093152;23;20022;-71
2023/09/18 07:07:25;;;;;;;15.20;10.90;;;18.70;99.90;;;;;;6093184;23;20018;-71
2023/09/18 07:09:51;;;;;;;13.93;10.70;;;18.90;99.90;;;;;;6093187;23;20326;-70
2023/09/18 07:12:19;;;;;;;14.23;10.57;;;18.70;99.90;;;;;;6118126;23;20028;-70
2023/09/18 07:14:45;;;;;;;14.43;10.05;;;18.70;99.90;;;;;;6093254;23;20030;-70
2023/09/18 07:17:11;;;;;;;18.38;11.63;;;18.70;99.90;;;;;;6118648;23;20344;-71
2023/09/18 07:19:37;;;;;;;12.02;10.73;;;18.60;99.90;;;;;;6092729;23;20071;-71
2023/09/18 07:22:03;;;;;;;12.93;11.38;;;18.60;99.90;;;;;;6119176;23;20067;-70
2023/09/18 07:24:28;;;;;;;21.15;11.23;;;18.60;99.90;;;;;;6093417;23;20014;-70
2023/09/18 07:26:54;;;;;;;12.10;10.50;;;18.60;99.90;;;;;;6092781;23;20502;-70
2023/09/18 07:29:20;;;;;;;9.40;8.50;;;18.60;99.90;;;;;;6117714;23;20079;-71
2023/09/18 07:31:46;;;;;;;10.27;8.43;;;18.60;99.90;;;;;;6119067;23;20440;-70
2023/09/18 07:34:13;;;;;;;11.50;9.48;;;18.60;99.90;;;;;;6093029;23;20018;-70
2023/09/18 07:36:39;;;;;;;11.20;9.93;;;18.70;99.90;;;;;;6091852;23;20060;-70
2023/09/18 07:39:05;;;;;;;12.77;9.88;;;18.70;99.90;;;;;;6092629;23;20022;-70
2023/09/18 07:41:32;;;;;;;13.02;9.98;;;18.70;99.90;;;;;;6093010;23;20551;-70
2023/09/18 07:43:59;;;;;;;11.73;9.82;;;18.70;99.90;;;;;;6093208;23;20010;-70
2023/09/18 07:46:24;;;;;;;12.20;10.25;;;18.70;99.90;;;;;;6093006;23;20437;-70
2023/09/18 07:48:50;;;;;;;12.75;10.73;;;18.70;99.90;;;;;;6118566;23;20075;-70
2023/09/18 07:51:16;;;;;;;12.20;10.77;;;18.70;99.90;;;;;;6092166;23;20014;-70
2023/09/18 07:53:42;;;;;;;14.55;10.20;;;18.70;99.90;;;;;;6117049;23;20020;-70
2023/09/18 07:56:08;;;;;;;12.63;10.43;;;18.70;99.90;;;;;;6091826;23;20022;-70
2023/09/18 07:58:38;;;;;;;13.25;11.43;;;18.70;99.90;;;;;;6118064;23;20014;-70
2023/09/18 08:01:06;;;;;;;14.48;12.05;;;18.70;99.90;;;;;;6093097;23;20601;-70
2023/09/18 08:03:32;;;;;;;16.25;11.98;;;18.70;99.90;;;;;;6092887;23;20519;-70
2023/09/18 08:05:58;;;;;;;14.65;12.80;;;18.80;99.90;;;;;;6118199;23;20014;-70
2023/09/18 08:08:24;;;;;;;15.43;12.13;;;18.80;99.90;;;;;;6119240;23;20025;-70
2023/09/18 08:10:51;;;;;;;17.48;12.55;;;18.80;99.90;;;;;;6118113;23;20380;-70
2023/09/18 08:13:17;;;;;;;15.52;11.93;;;18.80;99.90;;;;;;6093163;23;20018;-70
2023/09/18 08:15:43;;;;;;;12.38;11.27;;;18.80;99.90;;;;;;6092838;23;20029;-70
2023/09/18 08:18:10;;;;;;;12.35;11.15;;;18.80;99.90;;;;;;6093711;23;20025;-70
2023/09/18 08:20:39;;;;;;;12.43;11.32;;;18.80;99.90;;;;;;6091760;23;20068;-70
2023/09/18 08:23:05;;;;;;;10.82;9.25;;;18.80;99.90;;;;;;6069148;23;20037;-70
2023/09/18 08:25:32;;;;;;;10.80;8.52;;;18.90;99.90;;;;;;6092124;23;20341;-70
2023/09/18 08:27:57;;;;;;;13.07;9.35;;;18.90;99.90;;;;;;6092912;23;20026;-70
2023/09/18 08:30:23;;;;;;;11.02;9.13;;;18.90;99.90;;;;;;6118405;23;20337;-70
2023/09/18 08:32:48;;;;;;;11.27;8.82;;;18.90;99.90;;;;;;6093309;23;20014;-70
2023/09/18 08:35:14;;;;;;;10.32;9.27;;;18.90;99.90;;;;;;6092917;23;20028;-70
2023/09/18 08:37:43;;;;;;;10.23;9.15;;;18.90;99.90;;;;;;6092098;23;20025;-70
2023/09/18 08:40:13;;;;;;;13.45;10.00;;;18.90;99.90;;;;;;6092249;23;20026;-70
2023/09/18 08:42:53;;;;;;;11.55;10.35;;;19.00;99.90;;;;;;6118436;23;20014;-70
2023/09/18 08:45:52;;;;;;;12.55;10.55;;;19.00;99.90;;;;;;6093644;23;20018;-70
2023/09/18 08:48:19;;;;;;;11.23;10.02;;;19.00;99.90;;;;;;6079209;23;20021;-70
2023/09/18 08:50:45;;;;;;;13.52;10.27;;;19.10;99.90;;;;;;6091575;23;20026;-70
2023/09/18 08:53:11;;;;;;;11.48;10.25;;;19.10;99.90;;;;;;6093477;23;20021;-70
2023/09/18 08:55:37;;;;;;;10.45;9.48;;;19.00;99.90;;;;;;6091890;23;20029;-70
2023/09/18 08:58:03;;;;;;;13.25;10.75;;;19.00;99.90;;;;;;6118822;23;20060;-70
2023/09/18 09:00:29;;;;;;;13.68;10.82;;;19.10;99.90;;;;;;6117090;23;20095;-70
2023/09/18 09:02:55;;;;;;;11.63;10.40;;;19.10;99.90;;;;;;6091473;23;20097;-70
2023/09/18 09:05:24;;;;;;;11.85;10.18;;;19.10;99.90;;;;;;6092152;23;20014;-70
2023/09/18 09:07:50;;;;;;;12.43;10.27;;;19.10;99.90;;;;;;6115418;23;20418;-70
2023/09/18 09:10:16;;;;;;;14.32;10.85;;;19.10;99.90;;;;;;6092623;23;20093;-70
2023/09/18 09:12:52;;;;;;;11.93;10.73;;;19.20;99.90;;;;;;6092500;23;20100;-71
2023/09/18 09:15:18;;;;;;;12.60;11.30;;;19.20;99.90;;;;;;6118232;23;20088;-70
2023/09/18 09:17:47;;;;;;;14.10;11.90;;;19.20;99.90;;;;;;6092625;23;20111;-70
2023/09/18 09:20:14;;;;;;;12.27;11.02;;;19.20;99.90;;;;;;6092023;23;20017;-70
2023/09/18 09:22:41;;;;;;;13.35;11.75;;;19.30;99.90;;;;;;6118278;23;20429;-70
2023/09/18 09:25:31;;;;;;;12.27;11.00;;;19.40;99.90;;;;;;6092785;23;20014;-70
2023/09/18 09:27:58;;;;;;;13.13;11.82;;;19.40;99.90;;;;;;6092612;23;20097;-70
2023/09/18 09:30:26;;;;;;;13.10;11.43;;;19.50;99.90;;;;;;6116781;23;20337;-70
2023/09/18 09:32:54;;;;;;;12.23;10.68;;;19.60;99.90;;;;;;6092495;23;20067;-70
2023/09/18 09:35:33;;;;;;;12.80;11.52;;;19.70;99.90;;;;;;6119254;23;20487;-70
2023/09/18 09:38:19;;;;;;;13.90;11.52;;;19.70;99.90;;;;;;6092739;23;20349;-70
2023/09/18 09:40:45;;;;;;;12.82;11.45;;;19.80;99.90;;;;;;6091972;23;20026;-70
2023/09/18 09:43:14;;;;;;;13.18;11.75;;;19.90;99.90;;;;;;6093304;23;20094;-70
2023/09/18 09:45:40;;;;;;;12.27;11.15;;;20.00;99.90;;;;;;6117594;23;20018;-70
2023/09/18 09:48:07;;;;;;;13.13;11.73;;;20.00;99.90;;;;;;6091392;23;20028;-70
2023/09/18 09:50:33;;;;;;;15.40;10.85;;;20.20;99.90;;;;;;6091237;23;20014;-70
2023/09/18 09:53:00;;;;;;;12.48;10.80;;;20.20;99.90;;;;;;6092249;23;20101;-70
2023/09/18 09:55:28;;;;;;;13.18;10.75;;;20.30;99.90;;;;;;6118245;23;20045;-70
2023/09/18 09:58:02;;;;;;;10.27;9.10;;;20.20;99.90;;;;;;6119039;23;20014;-70
2023/09/18 10:00:49;;;;;;;11.60;10.43;;;20.30;99.90;;;;;;6091645;23;20049;-70
2023/09/18 10:03:20;;;;;;;9.93;9.13;;;20.40;99.90;;;;;;6092593;23;20453;-70
2023/09/18 10:05:50;;;;;;;10.63;9.52;;;20.50;99.90;;;;;;6117547;23;20062;-70
2023/09/18 10:08:26;;;;;;;8.45;7.75;;;20.60;99.90;;;;;;6067424;23;20018;-70
2023/09/18 10:10:54;;;;;;;13.73;7.97;;;20.50;99.90;;;;;;6116615;23;20062;-70
2023/09/18 10:13:36;;;;;;;7.95;7.30;;;20.70;99.90;;;;;;6092415;23;20441;-70
2023/09/18 10:16:06;;;;;;;8.40;7.60;;;20.70;99.90;;;;;;6091494;23;20033;-70
2023/09/18 10:18:38;;;;;;;7.05;6.35;;;20.70;99.90;;;;;;6092355;23;20021;-70
2023/09/18 10:21:41;;;;;;;7.35;6.60;;;20.80;99.90;;;;;;6068295;23;20029;-70
2023/09/18 10:24:33;;;;;;;6.30;5.70;;;20.80;99.90;;;;;;6092397;23;20060;-70
2023/09/18 10:27:02;;;;;;;5.88;5.38;;;21.10;99.90;;;;;;6091827;23;20425;-70
2023/09/18 10:29:30;;;;;;;7.78;6.80;;;21.20;99.90;;;;;;6117294;23;20709;-70
2023/09/18 10:31:55;;;;;;;6.78;5.63;;;21.30;99.90;;;;;;6091076;23;20439;-70
2023/09/18 10:34:23;;;;;;;7.40;5.15;;;21.60;99.90;;;;;;6092700;23;20010;-69
2023/09/18 10:36:50;;;;;;;10.93;4.90;;;21.80;99.90;;;;;;6091424;23;20093;-70
2023/09/18 10:39:19;;;;;;;5.10;4.60;;;22.10;99.90;;;;;;6092521;23;20053;-70
2023/09/18 10:41:51;;;;;;;6.90;5.57;;;22.20;99.90;;;;;;6093542;23;20026;-70
2023/09/18 10:44:17;;;;;;;5.40;4.88;;;22.30;99.90;;;;;;6093715;23;20018;-69
2023/09/18 10:46:54;;;;;;;5.10;3.25;;;22.40;99.90;;;;;;6117951;23;20018;-68
2023/09/18 10:49:20;;;;;;;5.85;4.10;;;22.40;99.90;;;;;;6092854;23;20014;-69
2023/09/18 10:51:47;;;;;;;7.35;3.40;;;22.40;99.90;;;;;;6118797;23;20464;-69
2023/09/18 10:54:19;;;;;;;4.97;3.05;;;22.50;99.90;;;;;;6091629;23;20018;-69
2023/09/18 10:56:45;;;;;;;4.45;3.47;;;22.60;99.90;;;;;;6092382;23;20022;-69
2023/09/18 10:59:11;;;;;;;3.70;2.83;;;22.40;99.90;;;;;;6092390;23;20037;-69
2023/09/18 11:01:37;;;;;;;7.93;2.90;;;22.30;99.90;;;;;;6092547;23;20068;-69
2023/09/18 11:04:08;;;;;;;3.60;3.30;;;22.10;99.90;;;;;;6093071;23;20010;-69
2023/09/18 11:06:55;;;;;;;4.93;2.88;;;22.00;99.90;;;;;;6092771;23;20022;-69
2023/09/18 11:09:24;;;;;;;4.55;3.08;;;21.90;99.90;;;;;;6117351;23;20404;-69
2023/09/18 11:11:57;;;;;;;5.30;3.08;;;21.70;99.90;;;;;;6092390;23;20056;-69
2023/09/18 11:14:45;;;;;;;3.47;3.17;;;21.60;99.90;;;;;;6092966;23;20072;-69
2023/09/18 11:17:33;;;;;;;5.95;3.35;;;21.60;99.90;;;;;;6118662;23;20455;-69
2023/09/18 11:20:07;;;;;;;3.88;3.05;;;21.80;99.90;;;;;;6117647;23;20021;-69
2023/09/18 11:22:35;;;;;;;10.25;4.85;;;22.00;99.90;;;;;;6118031;23;20644;-69
2023/09/18 11:25:29;;;;;;;4.53;3.40;;;22.20;99.90;;;;;;6093304;23;20342;-69
2023/09/18 11:27:55;;;;;;;4.18;3.05;;;22.40;99.90;;;;;;6093817;23;20079;-69
2023/09/18 11:30:22;;;;;;;6.15;3.65;;;22.50;99.90;;;;;;6092289;23;20014;-69
2023/09/18 11:32:48;;;;;;;4.18;2.80;;;22.40;99.90;;;;;;6118934;23;20064;-69
2023/09/18 11:35:16;;;;;;;6.22;3.63;;;22.20;99.90;;;;;;6119303;23;20018;-69
2023/09/18 11:37:43;;;;;;;13.10;4.72;;;22.00;99.90;;;;;;6091220;23;20457;-70
2023/09/18 11:40:38;;;;;;;10.35;4.70;;;21.70;99.90;;;;;;6093030;23;20491;-69
2023/09/18 11:43:33;;;;;;;4.13;3.25;;;21.40;99.90;;;;;;6118145;23;20093;-69
2023/09/18 11:46:01;;;;;;;3.85;2.92;;;21.10;99.90;;;;;;6095779;23;20686;-68
2023/09/18 11:48:29;;;;;;;4.13;2.80;;;21.00;99.90;;;;;;6118290;23;20317;-69
2023/09/18 11:50:57;;;;;;;6.75;4.03;;;21.00;99.90;;;;;;6090597;23;20014;-69
2023/09/18 11:53:24;;;;;;;4.55;3.97;;;21.10;99.90;;;;;;6093834;23;20089;-69
2023/09/18 11:55:50;;;;;;;4.88;4.03;;;21.20;99.90;;;;;;6119369;23;20026;-69
2023/09/18 11:58:16;;;;;;;4.72;3.80;;;21.10;99.90;;;;;;6092664;23;20140;-69
2023/09/18 12:00:47;;;;;;;7.55;4.13;;;21.10;99.90;;;;;;6090466;23;20465;-69
2023/09/18 12:03:26;;;;;;;6.13;3.40;;;21.10;99.90;;;;;;6116998;23;20017;-69
2023/09/18 12:06:05;;;;;;;5.78;3.95;;;21.20;99.90;;;;;;6117219;23;20402;-69
2023/09/18 12:08:32;;;;;;;6.35;3.80;;;21.20;99.90;;;;;;6092008;23;20018;-69
2023/09/18 12:10:58;;;;;;;4.40;3.28;;;21.40;99.90;;;;;;6118408;23;20010;-69
2023/09/18 12:13:27;;;;;;;3.95;3.03;;;21.50;99.90;;;;;;6119408;23;20006;-69
2023/09/18 12:15:58;;;;;;;4.97;3.67;;;21.50;99.90;;;;;;6119527;23;20025;-69
2023/09/18 12:18:25;;;;;;;5.07;3.30;;;21.60;99.90;;;;;;6118807;23;20344;-69
2023/09/18 12:20:51;;;;;;;6.90;4.50;;;21.70;99.90;;;;;;6092363;23;20018;-69
2023/09/18 12:23:20;;;;;;;3.58;2.90;;;21.80;99.90;;;;;;6119874;23;20014;-69
2023/09/18 12:25:49;;;;;;;6.75;3.22;;;21.80;99.90;;;;;;6118707;23;20681;-69
2023/09/18 12:28:16;;;;;;;4.57;2.72;;;21.90;99.90;;;;;;6094036;23;20018;-69
2023/09/18 12:30:42;;;;;;;6.28;3.30;;;22.20;99.90;;;;;;6092526;23;20013;-69
2023/09/18 12:33:08;;;;;;;4.60;3.03;;;22.40;99.90;;;;;;6092270;23;20014;-69
2023/09/18 12:35:34;;;;;;;3.70;2.65;;;22.50;99.90;;;;;;6091935;23;20020;-69
2023/09/18 12:38:00;;;;;;;4.03;2.72;;;22.70;99.90;;;;;;6094099;23;20025;-69
2023/09/18 12:40:33;;;;;;;4.95;2.47;;;22.80;99.90;;;;;;6092606;23;20071;-69